Time;durP1;ratioP1;P1;durP2;ratioP2;P2;SDS_P1;SDS_P2;PMS_P1;PMS_P2;Temp;Humidity;BMP_temperature;BMP_pressure;BME280_temperature;BME280_humidity;BME280_pressure;Samples;Min_cycle;Max_cycle;Signal;HPM_P1;HPM_P2
2023/12/14 00:00:56;;;;;;;;;;;;;;;;;;5098127;28;19915;-81
2023/12/14 00:03:21;;;;;;;;;;;;;;;;;;5096847;28;19908;-82
2023/12/14 00:05:46;;;;;;;;;;;;;;;;;;5097440;28;19915;-81
2023/12/14 00:08:11;;;;;;;;;;;;;;;;;;5097551;28;19908;-81
2023/12/14 00:10:36;;;;;;;;;;;;;;;;;;5097268;28;19915;-81
2023/12/14 00:13:04;;;;;;;;;;;;;;;;;;5095621;28;19922;-81
2023/12/14 00:15:29;;;;;;;;;;;;;;;;;;5095860;28;19934;-82
2023/12/14 00:17:55;;;;;;;;;;;;;;;;;;5097498;28;19908;-81
2023/12/14 00:20:20;;;;;;;;;;;;;;;;;;5095662;28;20003;-81
2023/12/14 00:22:45;;;;;;;;;;;;;;;;;;5087525;28;19908;-82
2023/12/14 00:25:10;;;;;;;;;;;;;;;;;;5097301;28;19915;-82
2023/12/14 00:27:35;;;;;;;;;;;;;;;;;;5097163;28;19961;-81
2023/12/14 00:30:00;;;;;;;;;;;;;;;;;;5100676;28;19912;-81
2023/12/14 00:32:26;;;;;;;;;;;;;;;;;;5100174;28;19915;-80
2023/12/14 00:34:51;;;;;;;;;;;;;;;;;;5101146;28;19912;-81
2023/12/14 00:37:16;;;;;;;;;;;;;;;;;;5100795;28;19915;-81
2023/12/14 00:39:41;;;;;;;;;;;;;;;;;;5104054;28;20293;-81
2023/12/14 00:42:06;;;;;;;;;;;;;;;;;;5104919;28;19926;-81
2023/12/14 00:44:31;;;;;;;;;;;;;;;;;;5105423;28;19908;-81
2023/12/14 00:46:58;;;;;;;;;;;;;;;;;;5103562;28;19930;-81
2023/12/14 00:49:23;;;;;;;;;;;;;;;;;;5103759;28;19962;-81
2023/12/14 00:51:48;;;;;;;;;;;;;;;;;;5104174;28;19920;-81
2023/12/14 00:54:13;;;;;;;;;;;;;;;;;;5104874;28;19915;-81
2023/12/14 00:56:38;;;;;;;;;;;;;;;;;;5103498;28;19923;-81
2023/12/14 00:59:03;;;;;;;;;;;;;;;;;;5104479;28;19916;-81
2023/12/14 01:01:29;;;;;;;;;;;;;;;;;;5103270;28;19915;-81
2023/12/14 01:03:54;;;;;;;;;;;;;;;;;;5104311;28;19908;-81
2023/12/14 01:06:19;;;;;;;;;;;;;;;;;;5103397;28;19908;-81
2023/12/14 01:08:44;;;;;;;;;;;;;;;;;;5102264;28;19908;-81
2023/12/14 01:11:10;;;;;;;;;;;;;;;;;;5103806;28;19934;-81
2023/12/14 01:13:35;;;;;;;;;;;;;;;;;;5102458;28;19915;-81
2023/12/14 01:16:00;;;;;;;;;;;;;;;;;;5103651;28;19908;-81
2023/12/14 01:18:25;;;;;;;;;;;;;;;;;;5103133;28;19919;-81
2023/12/14 01:20:50;;;;;;;;;;;;;;;;;;5102642;28;19958;-81
2023/12/14 01:23:16;;;;;;;;;;;;;;;;;;5104483;28;19915;-81
2023/12/14 01:25:41;;;;;;;;;;;;;;;;;;5104398;28;19908;-81
2023/12/14 01:28:06;;;;;;;;;;;;;;;;;;5103087;28;19931;-80
2023/12/14 01:30:31;;;;;;;;;;;;;;;;;;5102172;28;20007;-81
2023/12/14 01:32:56;;;;;;;;;;;;;;;;;;5103547;28;20259;-81
2023/12/14 01:35:22;;;;;;;;;;;;;;;;;;5101697;28;19946;-81
2023/12/14 01:37:47;;;;;;;;;;;;;;;;;;5100780;28;19977;-81
2023/12/14 01:40:12;;;;;;;;;;;;;;;;;;5096271;28;19912;-81
2023/12/14 01:42:37;;;;;;;;;;;;;;;;;;5102919;28;19912;-81
2023/12/14 01:45:03;;;;;;;;;;;;;;;;;;5102395;28;20098;-81
2023/12/14 01:47:28;;;;;;;;;;;;;;;;;;5096917;28;20297;-80
2023/12/14 01:49:53;;;;;;;;;;;;;;;;;;5093582;28;20270;-81
2023/12/14 01:52:19;;;;;;;;;;;;;;;;;;5094003;28;19916;-80
2023/12/14 01:54:44;;;;;;;;;;;;;;;;;;5095732;28;19908;-80
2023/12/14 01:57:09;;;;;;;;;;;;;;;;;;5095473;28;19909;-80
2023/12/14 01:59:34;;;;;;;;;;;;;;;;;;5095483;28;19963;-80
2023/12/14 02:02:01;;;;;;;;;;;;;;;;;;5093930;28;20049;-80
2023/12/14 02:04:26;;;;;;;;;;;;;;;;;;5094882;28;19908;-80
2023/12/14 02:06:51;;;;;;;;;;;;;;;;;;5100847;28;20003;-81
2023/12/14 02:09:16;;;;;;;;;;;;;;;;;;5100523;28;19930;-81
2023/12/14 02:11:41;;;;;;;;;;;;;;;;;;5100691;28;19957;-80
2023/12/14 02:14:06;;;;;;;;;;;;;;;;;;5102516;28;19909;-81
2023/12/14 02:16:32;;;;;;;;;;;;;;;;;;5102562;28;19916;-80
2023/12/14 02:18:57;;;;;;;;;;;;;;;;;;5101826;28;19942;-81
2023/12/14 02:21:22;;;;;;;;;;;;;;;;;;5100161;28;20301;-81
2023/12/14 02:23:47;;;;;;;;;;;;;;;;;;5100406;28;19908;-81
2023/12/14 02:26:12;;;;;;;;;;;;;;;;;;5102166;28;19930;-81
2023/12/14 02:28:37;;;;;;;;;;;;;;;;;;5100097;28;19908;-80
2023/12/14 02:31:02;;;;;;;;;;;;;;;;;;5101504;28;19916;-80
2023/12/14 02:33:27;;;;;;;;;;;;;;;;;;5100853;28;19916;-80
2023/12/14 02:35:53;;;;;;;;;;;;;;;;;;5100309;28;20284;-81
2023/12/14 02:38:18;;;;;;;;;;;;;;;;;;5099394;28;19919;-81
2023/12/14 02:40:43;;;;;;;;;;;;;;;;;;5099763;28;19944;-81
2023/12/14 02:43:08;;;;;;;;;;;;;;;;;;5101486;28;20364;-81
2023/12/14 02:45:33;;;;;;;;;;;;;;;;;;5101451;28;19998;-81
2023/12/14 02:47:58;;;;;;;;;;;;;;;;;;5099284;28;19964;-81
2023/12/14 02:50:23;;;;;;;;;;;;;;;;;;5099436;28;19912;-81
2023/12/14 02:52:48;;;;;;;;;;;;;;;;;;5099895;28;19916;-81
2023/12/14 02:55:13;;;;;;;;;;;;;;;;;;5099688;28;20387;-81
2023/12/14 02:57:39;;;;;;;;;;;;;;;;;;5098895;28;19908;-81
2023/12/14 03:00:04;;;;;;;;;;;;;;;;;;5092731;28;19965;-81
2023/12/14 03:02:29;;;;;;;;;;;;;;;;;;5099704;28;20015;-81
2023/12/14 03:04:54;;;;;;;;;;;;;;;;;;5100763;28;20300;-81
2023/12/14 03:07:19;;;;;;;;;;;;;;;;;;5099744;28;20357;-81
2023/12/14 03:09:44;;;;;;;;;;;;;;;;;;5098470;28;20193;-81
2023/12/14 03:12:09;;;;;;;;;;;;;;;;;;5100706;28;19955;-81
2023/12/14 03:14:34;;;;;;;;;;;;;;;;;;5100466;28;19908;-81
2023/12/14 03:16:59;;;;;;;;;;;;;;;;;;5098892;28;19916;-80
2023/12/14 03:19:24;;;;;;;;;;;;;;;;;;5092214;28;19958;-81
2023/12/14 03:21:50;;;;;;;;;;;;;;;;;;5098147;28;19908;-81
2023/12/14 03:24:15;;;;;;;;;;;;;;;;;;5100557;28;19908;-80
2023/12/14 03:26:40;;;;;;;;;;;;;;;;;;5098536;28;19913;-80
2023/12/14 03:29:05;;;;;;;;;;;;;;;;;;5099350;28;19908;-81
2023/12/14 03:31:30;;;;;;;;;;;;;;;;;;5098329;28;19958;-80
2023/12/14 03:33:55;;;;;;;;;;;;;;;;;;5099667;28;20003;-81
2023/12/14 03:36:22;;;;;;;;;;;;;;;;;;5101180;28;19916;-81
2023/12/14 03:38:47;;;;;;;;;;;;;;;;;;5100503;28;19912;-81
2023/12/14 03:41:12;;;;;;;;;;;;;;;;;;5099726;28;19962;-81
2023/12/14 03:43:37;;;;;;;;;;;;;;;;;;5100197;28;20139;-81
2023/12/14 03:46:03;;;;;;;;;;;;;;;;;;5100211;28;20365;-81
2023/12/14 03:48:28;;;;;;;;;;;;;;;;;;5100309;28;19908;-81
2023/12/14 03:50:53;;;;;;;;;;;;;;;;;;5099705;28;19912;-80
2023/12/14 03:53:18;;;;;;;;;;;;;;;;;;5098717;28;19916;-81
2023/12/14 03:55:43;;;;;;;;;;;;;;;;;;5098544;28;19912;-81
2023/12/14 03:58:08;;;;;;;;;;;;;;;;;;5098747;28;19912;-81
2023/12/14 04:00:33;;;;;;;;;;;;;;;;;;5099141;28;20003;-81
2023/12/14 04:02:58;;;;;;;;;;;;;;;;;;5099125;28;19975;-81
2023/12/14 04:05:23;;;;;;;;;;;;;;;;;;5100447;28;19912;-81
2023/12/14 04:07:48;;;;;;;;;;;;;;;;;;5097773;28;19908;-81
2023/12/14 04:10:14;;;;;;;;;;;;;;;;;;5097979;28;19909;-81
2023/12/14 04:12:39;;;;;;;;;;;;;;;;;;5098144;28;19931;-81
2023/12/14 04:15:04;;;;;;;;;;;;;;;;;;5099245;28;19912;-80
2023/12/14 04:17:29;;;;;;;;;;;;;;;;;;5097995;28;19908;-81
2023/12/14 04:19:54;;;;;;;;;;;;;;;;;;5099082;28;19935;-81
2023/12/14 04:22:19;;;;;;;;;;;;;;;;;;5098747;28;20361;-81
2023/12/14 04:24:44;;;;;;;;;;;;;;;;;;5097774;28;19931;-81
2023/12/14 04:27:09;;;;;;;;;;;;;;;;;;5097619;28;20281;-81
2023/12/14 04:29:34;;;;;;;;;;;;;;;;;;5098326;28;19915;-81
2023/12/14 04:31:59;;;;;;;;;;;;;;;;;;5097841;28;20274;-81
2023/12/14 04:34:25;;;;;;;;;;;;;;;;;;5098271;28;20362;-81
2023/12/14 04:36:50;;;;;;;;;;;;;;;;;;5098998;28;19908;-81
2023/12/14 04:39:16;;;;;;;;;;;;;;;;;;5096808;28;19920;-81
2023/12/14 04:41:41;;;;;;;;;;;;;;;;;;5095426;28;19931;-80
2023/12/14 04:44:06;;;;;;;;;;;;;;;;;;5090966;28;19908;-80
2023/12/14 04:46:32;;;;;;;;;;;;;;;;;;5092424;28;19919;-80
2023/12/14 04:48:57;;;;;;;;;;;;;;;;;;5092119;28;20374;-80
2023/12/14 04:51:22;;;;;;;;;;;;;;;;;;5091059;28;19916;-81
2023/12/14 04:53:47;;;;;;;;;;;;;;;;;;5092386;28;19919;-80
2023/12/14 04:56:12;;;;;;;;;;;;;;;;;;5090975;28;19908;-80
2023/12/14 04:58:37;;;;;;;;;;;;;;;;;;5090620;28;19966;-80
2023/12/14 05:01:02;;;;;;;;;;;;;;;;;;5092141;28;19908;-80
2023/12/14 05:03:27;;;;;;;;;;;;;;;;;;5092228;28;19912;-80
2023/12/14 05:05:52;;;;;;;;;;;;;;;;;;5092109;28;19912;-80
2023/12/14 05:08:17;;;;;;;;;;;;;;;;;;5092118;28;19915;-80
2023/12/14 05:10:43;;;;;;;;;;;;;;;;;;5091737;28;19912;-80
2023/12/14 05:13:08;;;;;;;;;;;;;;;;;;5092074;28;19962;-80
2023/12/14 05:15:33;;;;;;;;;;;;;;;;;;5090892;28;20373;-80
2023/12/14 05:17:58;;;;;;;;;;;;;;;;;;5090671;28;19908;-80
2023/12/14 05:20:23;;;;;;;;;;;;;;;;;;5090486;28;19977;-80
2023/12/14 05:22:48;;;;;;;;;;;;;;;;;;5090651;28;20002;-80
2023/12/14 05:25:14;;;;;;;;;;;;;;;;;;5093608;28;19912;-80
2023/12/14 05:27:39;;;;;;;;;;;;;;;;;;5094376;28;19915;-80
2023/12/14 05:30:04;;;;;;;;;;;;;;;;;;5095284;28;19908;-80
2023/12/14 05:32:30;;;;;;;;;;;;;;;;;;5094168;28;19908;-80
2023/12/14 05:34:55;;;;;;;;;;;;;;;;;;5095395;28;19908;-80
2023/12/14 05:37:20;;;;;;;;;;;;;;;;;;5100193;28;19908;-81
2023/12/14 05:39:45;;;;;;;;;;;;;;;;;;5099175;28;19912;-81
2023/12/14 05:42:10;;;;;;;;;;;;;;;;;;5099568;28;19916;-81
2023/12/14 05:44:35;;;;;;;;;;;;;;;;;;5100989;28;20251;-81
2023/12/14 05:47:00;;;;;;;;;;;;;;;;;;5099511;28;19909;-81
2023/12/14 05:49:25;;;;;;;;;;;;;;;;;;5100302;28;20006;-81
2023/12/14 05:51:51;;;;;;;;;;;;;;;;;;5098865;28;19915;-81
2023/12/14 05:54:16;;;;;;;;;;;;;;;;;;5099355;28;19915;-81
2023/12/14 05:56:41;;;;;;;;;;;;;;;;;;5099713;28;20324;-81
2023/12/14 05:59:06;;;;;;;;;;;;;;;;;;5099113;28;19986;-80
2023/12/14 06:01:31;;;;;;;;;;;;;;;;;;5100472;28;20384;-81
2023/12/14 06:03:56;;;;;;;;;;;;;;;;;;5098963;28;19909;-80
2023/12/14 06:06:21;;;;;;;;;;;;;;;;;;5100628;28;19908;-81
2023/12/14 06:08:46;;;;;;;;;;;;;;;;;;5098836;28;19908;-81
2023/12/14 06:11:11;;;;;;;;;;;;;;;;;;5100423;28;19915;-81
2023/12/14 06:13:37;;;;;;;;;;;;;;;;;;5100294;28;19908;-81
2023/12/14 06:16:02;;;;;;;;;;;;;;;;;;5098428;28;19912;-81
2023/12/14 06:18:27;;;;;;;;;;;;;;;;;;5100164;28;19957;-81
2023/12/14 06:20:53;;;;;;;;;;;;;;;;;;5098464;28;20002;-81
2023/12/14 06:23:18;;;;;;;;;;;;;;;;;;5098665;28;19908;-81
2023/12/14 06:25:43;;;;;;;;;;;;;;;;;;5099493;28;19912;-80
2023/12/14 06:28:08;;;;;;;;;;;;;;;;;;5099829;28;20324;-81
2023/12/14 06:30:33;;;;;;;;;;;;;;;;;;5099989;28;20393;-81
2023/12/14 06:32:58;;;;;;;;;;;;;;;;;;5098603;28;19930;-81
2023/12/14 06:35:23;;;;;;;;;;;;;;;;;;5099872;28;19919;-81
2023/12/14 06:37:48;;;;;;;;;;;;;;;;;;5100094;28;19908;-81
2023/12/14 06:40:14;;;;;;;;;;;;;;;;;;5099525;28;19923;-81
2023/12/14 06:42:39;;;;;;;;;;;;;;;;;;5097939;28;20270;-81
2023/12/14 06:45:04;;;;;;;;;;;;;;;;;;5099083;28;19908;-81
2023/12/14 06:47:29;;;;;;;;;;;;;;;;;;5097901;28;19908;-81
2023/12/14 06:49:56;;;;;;;;;;;;;;;;;;5097480;28;19962;-81
2023/12/14 06:52:21;;;;;;;;;;;;;;;;;;5097326;28;19916;-81
2023/12/14 06:54:47;;;;;;;;;;;;;;;;;;5097089;28;19914;-81
2023/12/14 06:57:12;;;;;;;;;;;;;;;;;;5097020;28;19908;-81
2023/12/14 06:59:37;;;;;;;;;;;;;;;;;;5097902;28;19920;-81
2023/12/14 07:02:02;;;;;;;;;;;;;;;;;;5097819;28;19908;-81
2023/12/14 07:04:27;;;;;;;;;;;;;;;;;;5098864;28;19908;-81
2023/12/14 07:06:52;;;;;;;;;;;;;;;;;;5098873;28;19922;-81
2023/12/14 07:09:17;;;;;;;;;;;;;;;;;;5098402;28;19908;-80
2023/12/14 07:11:43;;;;;;;;;;;;;;;;;;5097889;28;20331;-81
2023/12/14 07:14:08;;;;;;;;;;;;;;;;;;5096881;28;20010;-81
2023/12/14 07:16:33;;;;;;;;;;;;;;;;;;5096550;28;19912;-80
2023/12/14 07:18:58;;;;;;;;;;;;;;;;;;5096320;28;19912;-81
2023/12/14 07:21:23;;;;;;;;;;;;;;;;;;5096661;28;19912;-81
2023/12/14 07:23:48;;;;;;;;;;;;;;;;;;5096293;28;19929;-81
2023/12/14 07:26:13;;;;;;;;;;;;;;;;;;5096732;28;19916;-81
2023/12/14 07:28:38;;;;;;;;;;;;;;;;;;5097783;28;19916;-80
2023/12/14 07:31:03;;;;;;;;;;;;;;;;;;5096221;28;19958;-81
2023/12/14 07:33:28;;;;;;;;;;;;;;;;;;5096673;28;20285;-80
2023/12/14 07:35:54;;;;;;;;;;;;;;;;;;5095430;28;19912;-80
2023/12/14 07:38:19;;;;;;;;;;;;;;;;;;5093282;28;19935;-80
2023/12/14 07:40:45;;;;;;;;;;;;;;;;;;5091878;28;19991;-80
2023/12/14 07:43:10;;;;;;;;;;;;;;;;;;5093264;28;19947;-80
2023/12/14 07:45:35;;;;;;;;;;;;;;;;;;5093059;28;19908;-80
2023/12/14 07:48:00;;;;;;;;;;;;;;;;;;5092514;28;19908;-81
2023/12/14 07:50:26;;;;;;;;;;;;;;;;;;5091551;28;19930;-80
2023/12/14 07:52:51;;;;;;;;;;;;;;;;;;5091458;28;19916;-80
2023/12/14 07:55:17;;;;;;;;;;;;;;;;;;5091423;28;20002;-80
2023/12/14 07:57:42;;;;;;;;;;;;;;;;;;5091569;28;19916;-80
2023/12/14 08:00:10;;;;;;;;;;;;;;;;;;5092641;28;20124;-80
2023/12/14 08:02:35;;;;;;;;;;;;;;;;;;5093044;28;19931;-80
2023/12/14 08:05:00;;;;;;;;;;;;;;;;;;5091531;28;19908;-80
2023/12/14 08:07:28;;;;;;;;;;;;;;;;;;5092910;28;20289;-81
2023/12/14 08:09:54;;;;;;;;;;;;;;;;;;5092364;28;20003;-80
2023/12/14 08:12:19;;;;;;;;;;;;;;;;;;5092795;28;19995;-80
2023/12/14 08:14:44;;;;;;;;;;;;;;;;;;5091377;28;20047;-80
2023/12/14 08:17:10;;;;;;;;;;;;;;;;;;5091196;28;19930;-80
2023/12/14 08:19:35;;;;;;;;;;;;;;;;;;5091126;28;20380;-80
2023/12/14 08:22:00;;;;;;;;;;;;;;;;;;5091147;28;19952;-80
2023/12/14 08:24:25;;;;;;;;;;;;;;;;;;5092408;28;19962;-80
2023/12/14 08:26:51;;;;;;;;;;;;;;;;;;5092638;28;19912;-80
2023/12/14 08:29:16;;;;;;;;;;;;;;;;;;5090920;28;20393;-80
2023/12/14 08:31:41;;;;;;;;;;;;;;;;;;5092250;28;20003;-80
2023/12/14 08:34:06;;;;;;;;;;;;;;;;;;5092371;28;19908;-80
2023/12/14 08:36:31;;;;;;;;;;;;;;;;;;5092961;28;19908;-80
2023/12/14 08:38:56;;;;;;;;;;;;;;;;;;5090664;28;19940;-80
2023/12/14 08:41:21;;;;;;;;;;;;;;;;;;5092529;28;19920;-80
2023/12/14 08:43:46;;;;;;;;;;;;;;;;;;5092121;28;19953;-80
2023/12/14 08:46:12;;;;;;;;;;;;;;;;;;5090950;28;19908;-80
2023/12/14 08:48:37;;;;;;;;;;;;;;;;;;5090959;28;19912;-80
2023/12/14 08:51:02;;;;;;;;;;;;;;;;;;5090639;28;19995;-80
2023/12/14 08:53:28;;;;;;;;;;;;;;;;;;5090863;28;20293;-80
2023/12/14 08:55:53;;;;;;;;;;;;;;;;;;5092071;28;19934;-80
2023/12/14 08:58:18;;;;;;;;;;;;;;;;;;5091124;28;19927;-80
2023/12/14 09:00:43;;;;;;;;;;;;;;;;;;5094533;28;19953;-80
2023/12/14 09:03:09;;;;;;;;;;;;;;;;;;5095867;28;20284;-80
2023/12/14 09:05:34;;;;;;;;;;;;;;;;;;5095817;28;19915;-80
2023/12/14 09:07:59;;;;;;;;;;;;;;;;;;5098146;28;19915;-81
2023/12/14 09:10:25;;;;;;;;;;;;;;;;;;5098140;28;20369;-81
2023/12/14 09:12:50;;;;;;;;;;;;;;;;;;5098017;28;20308;-81
2023/12/14 09:15:15;;;;;;;;;;;;;;;;;;5097170;28;19914;-81
2023/12/14 09:17:42;;;;;;;;;;;;;;;;;;5097811;28;19908;-81
2023/12/14 09:20:07;;;;;;;;;;;;;;;;;;5099307;28;19912;-80
2023/12/14 09:22:32;;;;;;;;;;;;;;;;;;5099495;28;19938;-81
2023/12/14 09:24:57;;;;;;;;;;;;;;;;;;5097817;28;19908;-81
2023/12/14 09:27:22;;;;;;;;;;;;;;;;;;5098069;28;20394;-80
2023/12/14 09:29:47;;;;;;;;;;;;;;;;;;5097692;28;19996;-81
2023/12/14 09:32:12;;;;;;;;;;;;;;;;;;5099662;28;19908;-80
2023/12/14 09:34:37;;;;;;;;;;;;;;;;;;5099206;28;19934;-80
2023/12/14 09:37:02;;;;;;;;;;;;;;;;;;5099428;28;19908;-81
2023/12/14 09:39:28;;;;;;;;;;;;;;;;;;5098783;28;19919;-81
2023/12/14 09:41:53;;;;;;;;;;;;;;;;;;5098820;28;19912;-81
2023/12/14 09:44:19;;;;;;;;;;;;;;;;;;5097505;28;19958;-81
2023/12/14 09:46:49;;;;;;;;;;;;;;;;;;5097286;28;19908;-81
2023/12/14 09:49:14;;;;;;;;;;;;;;;;;;5098874;28;20297;-81
2023/12/14 09:51:40;;;;;;;;;;;;;;;;;;5098217;28;20259;-81
2023/12/14 09:54:05;;;;;;;;;;;;;;;;;;5089702;28;20432;-81
2023/12/14 09:56:31;;;;;;;;;;;;;;;;;;5098520;28;20443;-81
2023/12/14 09:58:57;;;;;;;;;;;;;;;;;;5096661;28;20426;-81
2023/12/14 10:01:22;;;;;;;;;;;;;;;;;;5097121;28;19914;-81
2023/12/14 10:03:48;;;;;;;;;;;;;;;;;;5096735;28;20343;-81
2023/12/14 10:06:13;;;;;;;;;;;;;;;;;;5098273;28;19915;-81
2023/12/14 10:08:38;;;;;;;;;;;;;;;;;;5097016;28;19912;-80
2023/12/14 10:11:04;;;;;;;;;;;;;;;;;;5097213;28;19908;-81
2023/12/14 10:13:29;;;;;;;;;;;;;;;;;;5097201;28;19908;-81
2023/12/14 10:15:54;;;;;;;;;;;;;;;;;;5096494;28;20289;-81
2023/12/14 10:18:19;;;;;;;;;;;;;;;;;;5098202;28;19912;-81
2023/12/14 10:20:45;;;;;;;;;;;;;;;;;;5096265;28;19908;-81
2023/12/14 10:23:10;;;;;;;;;;;;;;;;;;5098425;28;19908;-80
2023/12/14 10:25:35;;;;;;;;;;;;;;;;;;5098227;28;19908;-81
2023/12/14 10:28:00;;;;;;;;;;;;;;;;;;5096437;28;19908;-81
2023/12/14 10:30:27;;;;;;;;;;;;;;;;;;5095845;28;19977;-81
2023/12/14 10:32:52;;;;;;;;;;;;;;;;;;5094683;28;19915;-80
2023/12/14 10:35:19;;;;;;;;;;;;;;;;;;5093364;28;19908;-80
2023/12/14 10:37:45;;;;;;;;;;;;;;;;;;5094191;28;19912;-80
2023/12/14 10:40:10;;;;;;;;;;;;;;;;;;5094735;28;20014;-80
2023/12/14 10:42:35;;;;;;;;;;;;;;;;;;5092899;28;20450;-80
2023/12/14 10:45:00;;;;;;;;;;;;;;;;;;5094297;28;19913;-80
2023/12/14 10:47:25;;;;;;;;;;;;;;;;;;5094374;28;19971;-80
2023/12/14 10:49:50;;;;;;;;;;;;;;;;;;5093944;28;20339;-81
2023/12/14 10:52:16;;;;;;;;;;;;;;;;;;5093804;28;19951;-80
2023/12/14 10:54:41;;;;;;;;;;;;;;;;;;5092793;28;19931;-80
2023/12/14 10:57:08;;;;;;;;;;;;;;;;;;5094035;28;20379;-80
2023/12/14 10:59:33;;;;;;;;;;;;;;;;;;5094114;28;20020;-81
2023/12/14 11:01:59;;;;;;;;;;;;;;;;;;5092444;28;21088;-80
2023/12/14 11:04:24;;;;;;;;;;;;;;;;;;5093971;28;20380;-80
2023/12/14 11:06:49;;;;;;;;;;;;;;;;;;5092502;28;19962;-80
2023/12/14 11:09:15;;;;;;;;;;;;;;;;;;5094748;28;20383;-80
2023/12/14 11:11:40;;;;;;;;;;;;;;;;;;5092467;28;19908;-80
2023/12/14 11:14:05;;;;;;;;;;;;;;;;;;5092271;28;20411;-80
2023/12/14 11:16:31;;;;;;;;;;;;;;;;;;5093715;28;20377;-80
2023/12/14 11:18:56;;;;;;;;;;;;;;;;;;5092178;28;19918;-81
2023/12/14 11:21:21;;;;;;;;;;;;;;;;;;5093757;28;19919;-80
2023/12/14 11:23:46;;;;;;;;;;;;;;;;;;5091370;28;20281;-80
2023/12/14 11:26:11;;;;;;;;;;;;;;;;;;5093641;28;20381;-80
2023/12/14 11:28:36;;;;;;;;;;;;;;;;;;5092080;28;20389;-80
2023/12/14 11:31:02;;;;;;;;;;;;;;;;;;5093190;28;19908;-80
2023/12/14 11:33:28;;;;;;;;;;;;;;;;;;5092226;28;19978;-80
2023/12/14 11:35:53;;;;;;;;;;;;;;;;;;5092131;28;19912;-80
2023/12/14 11:38:20;;;;;;;;;;;;;;;;;;5092204;28;20358;-80
2023/12/14 11:40:45;;;;;;;;;;;;;;;;;;5093089;28;20392;-80
2023/12/14 11:43:10;;;;;;;;;;;;;;;;;;5091923;28;20319;-80
2023/12/14 11:45:35;;;;;;;;;;;;;;;;;;5091890;28;20373;-80
2023/12/14 11:48:04;;;;;;;;;;;;;;;;;;5091926;28;19908;-80
2023/12/14 11:50:29;;;;;;;;;;;;;;;;;;5091644;28;20467;-80
2023/12/14 11:52:54;;;;;;;;;;;;;;;;;;5092789;28;20418;-80
2023/12/14 11:55:20;;;;;;;;;;;;;;;;;;5091980;28;19908;-81
2023/12/14 11:57:45;;;;;;;;;;;;;;;;;;5091426;28;19915;-80
2023/12/14 12:00:10;;;;;;;;;;;;;;;;;;5091439;28;19912;-80
2023/12/14 12:02:35;;;;;;;;;;;;;;;;;;5091621;28;19912;-80
2023/12/14 12:05:00;;;;;;;;;;;;;;;;;;5091282;28;19950;-80
2023/12/14 12:07:25;;;;;;;;;;;;;;;;;;5092730;28;20384;-80
2023/12/14 12:09:51;;;;;;;;;;;;;;;;;;5092815;28;20387;-80
2023/12/14 12:12:16;;;;;;;;;;;;;;;;;;5092679;28;19908;-80
2023/12/14 12:14:41;;;;;;;;;;;;;;;;;;5092708;28;19999;-80
2023/12/14 12:17:07;;;;;;;;;;;;;;;;;;5092753;28;20373;-80
2023/12/14 12:19:32;;;;;;;;;;;;;;;;;;5092584;28;20335;-80
2023/12/14 12:21:57;;;;;;;;;;;;;;;;;;5093486;28;20361;-80
2023/12/14 12:24:22;;;;;;;;;;;;;;;;;;5094643;28;19991;-80
2023/12/14 12:26:47;;;;;;;;;;;;;;;;;;5093222;28;19908;-80
2023/12/14 12:29:12;;;;;;;;;;;;;;;;;;5094224;28;19955;-80
2023/12/14 12:31:37;;;;;;;;;;;;;;;;;;5094372;28;19969;-80
2023/12/14 12:34:03;;;;;;;;;;;;;;;;;;5094851;28;19961;-80
2023/12/14 12:36:28;;;;;;;;;;;;;;;;;;5096994;28;20002;-80
2023/12/14 12:38:53;;;;;;;;;;;;;;;;;;5098887;28;19912;-80
2023/12/14 12:41:18;;;;;;;;;;;;;;;;;;5099634;28;19930;-80
2023/12/14 12:43:43;;;;;;;;;;;;;;;;;;5099730;28;19912;-81
2023/12/14 12:46:08;;;;;;;;;;;;;;;;;;5099669;28;19933;-81
2023/12/14 12:48:34;;;;;;;;;;;;;;;;;;5099848;28;19912;-81
2023/12/14 12:50:59;;;;;;;;;;;;;;;;;;5097086;28;20007;-81
2023/12/14 12:53:24;;;;;;;;;;;;;;;;;;5099491;28;19916;-81
2023/12/14 12:55:50;;;;;;;;;;;;;;;;;;5097724;28;19997;-81
2023/12/14 12:58:15;;;;;;;;;;;;;;;;;;5099246;28;20389;-81
2023/12/14 13:00:40;;;;;;;;;;;;;;;;;;5097543;28;20002;-81
2023/12/14 13:03:05;;;;;;;;;;;;;;;;;;5097659;28;19931;-81
2023/12/14 13:05:30;;;;;;;;;;;;;;;;;;5097555;28;20290;-81
2023/12/14 13:07:57;;;;;;;;;;;;;;;;;;5097976;28;19908;-81
2023/12/14 13:10:26;;;;;;;;;;;;;;;;;;5097466;28;19944;-81
2023/12/14 13:12:51;;;;;;;;;;;;;;;;;;5099600;28;19915;-81
2023/12/14 13:15:18;;;;;;;;;;;;;;;;;;5097673;28;19909;-81
2023/12/14 13:17:43;;;;;;;;;;;;;;;;;;5088699;28;20034;-80
2023/12/14 13:20:08;;;;;;;;;;;;;;;;;;5096993;28;19975;-81
2023/12/14 13:22:34;;;;;;;;;;;;;;;;;;5097242;28;19919;-80
2023/12/14 13:24:59;;;;;;;;;;;;;;;;;;5098701;28;20349;-80
2023/12/14 13:27:25;;;;;;;;;;;;;;;;;;5097530;28;20010;-81
2023/12/14 13:29:50;;;;;;;;;;;;;;;;;;5097520;28;20362;-81
2023/12/14 13:32:15;;;;;;;;;;;;;;;;;;5096503;28;20357;-81
2023/12/14 13:34:40;;;;;;;;;;;;;;;;;;5096506;28;19909;-80
2023/12/14 13:37:05;;;;;;;;;;;;;;;;;;5096139;28;19908;-80
2023/12/14 13:39:31;;;;;;;;;;;;;;;;;;5096267;28;19912;-81
2023/12/14 13:41:56;;;;;;;;;;;;;;;;;;5097473;28;19912;-81
2023/12/14 13:44:21;;;;;;;;;;;;;;;;;;5095945;28;20329;-81
2023/12/14 13:46:46;;;;;;;;;;;;;;;;;;5094423;28;19909;-81
2023/12/14 13:49:11;;;;;;;;;;;;;;;;;;5096767;28;19916;-80
2023/12/14 13:51:37;;;;;;;;;;;;;;;;;;5094956;28;19912;-80
2023/12/14 13:54:02;;;;;;;;;;;;;;;;;;5095509;28;19909;-80
2023/12/14 13:56:27;;;;;;;;;;;;;;;;;;5096520;28;20370;-80
2023/12/14 13:58:52;;;;;;;;;;;;;;;;;;5094608;28;19912;-80
2023/12/14 14:01:18;;;;;;;;;;;;;;;;;;5095307;28;19916;-80
2023/12/14 14:03:43;;;;;;;;;;;;;;;;;;5095013;28;19918;-80
2023/12/14 14:06:08;;;;;;;;;;;;;;;;;;5096046;28;19908;-80
2023/12/14 14:08:33;;;;;;;;;;;;;;;;;;5094451;28;19919;-80
2023/12/14 14:10:58;;;;;;;;;;;;;;;;;;5093917;28;19948;-80
2023/12/14 14:13:24;;;;;;;;;;;;;;;;;;5095224;28;19908;-80
2023/12/14 14:15:49;;;;;;;;;;;;;;;;;;5094851;28;19908;-80
2023/12/14 14:18:14;;;;;;;;;;;;;;;;;;5094754;28;19919;-80
2023/12/14 14:20:39;;;;;;;;;;;;;;;;;;5094743;28;19912;-81
2023/12/14 14:23:04;;;;;;;;;;;;;;;;;;5096087;28;20335;-80
2023/12/14 14:25:29;;;;;;;;;;;;;;;;;;5096096;28;19908;-80
2023/12/14 14:27:55;;;;;;;;;;;;;;;;;;5094592;28;19942;-80
2023/12/14 14:30:20;;;;;;;;;;;;;;;;;;5096044;28;19908;-80
2023/12/14 14:32:45;;;;;;;;;;;;;;;;;;5095773;28;19931;-80
2023/12/14 14:35:10;;;;;;;;;;;;;;;;;;5096229;28;19912;-80
2023/12/14 14:37:36;;;;;;;;;;;;;;;;;;5095037;28;19912;-80
2023/12/14 14:40:01;;;;;;;;;;;;;;;;;;5094520;28;19912;-80
2023/12/14 14:42:26;;;;;;;;;;;;;;;;;;5095064;28;19908;-80
2023/12/14 14:44:51;;;;;;;;;;;;;;;;;;5095362;28;20441;-80
2023/12/14 14:47:17;;;;;;;;;;;;;;;;;;5095173;28;19908;-80
2023/12/14 14:49:42;;;;;;;;;;;;;;;;;;5094234;28;19912;-80
2023/12/14 14:52:07;;;;;;;;;;;;;;;;;;5095788;28;19916;-80
2023/12/14 14:54:32;;;;;;;;;;;;;;;;;;5096228;28;19908;-81
2023/12/14 14:56:58;;;;;;;;;;;;;;;;;;5094579;28;19908;-80
2023/12/14 14:59:23;;;;;;;;;;;;;;;;;;5094540;28;19948;-80
2023/12/14 15:01:50;;;;;;;;;;;;;;;;;;5094557;28;20094;-80
2023/12/14 15:04:15;;;;;;;;;;;;;;;;;;5092562;28;19956;-80
2023/12/14 15:06:40;;;;;;;;;;;;;;;;;;5094554;28;19935;-80
2023/12/14 15:09:07;;;;;;;;;;;;;;;;;;5093455;28;20010;-80
2023/12/14 15:11:32;;;;;;;;;;;;;;;;;;5092376;28;19930;-80
2023/12/14 15:13:57;;;;;;;;;;;;;;;;;;5093802;28;20342;-80
2023/12/14 15:16:26;;;;;;;;;;;;;;;;;;5092460;28;20423;-80
2023/12/14 15:18:51;;;;;;;;;;;;;;;;;;5091974;28;19991;-80
2023/12/14 15:21:16;;;;;;;;;;;;;;;;;;5092236;28;19984;-80
2023/12/14 15:23:43;;;;;;;;;;;;;;;;;;5092032;28;20370;-81
2023/12/14 15:26:09;;;;;;;;;;;;;;;;;;5092201;28;19908;-80
2023/12/14 15:28:34;;;;;;;;;;;;;;;;;;5093478;28;20041;-80
2023/12/14 15:30:59;;;;;;;;;;;;;;;;;;5093393;28;20384;-80
2023/12/14 15:33:25;;;;;;;;;;;;;;;;;;5093366;28;19999;-80
2023/12/14 15:35:50;;;;;;;;;;;;;;;;;;5092582;28;19912;-80
2023/12/14 15:38:16;;;;;;;;;;;;;;;;;;5093352;28;19968;-80
2023/12/14 15:40:42;;;;;;;;;;;;;;;;;;5093133;28;19908;-80
2023/12/14 15:43:07;;;;;;;;;;;;;;;;;;5092084;28;20353;-80
2023/12/14 15:45:33;;;;;;;;;;;;;;;;;;5093745;28;20336;-80
2023/12/14 15:47:58;;;;;;;;;;;;;;;;;;5093318;28;20366;-80
2023/12/14 15:50:23;;;;;;;;;;;;;;;;;;5083398;28;19919;-80
2023/12/14 15:52:48;;;;;;;;;;;;;;;;;;5093214;28;19922;-80
2023/12/14 15:55:13;;;;;;;;;;;;;;;;;;5093229;28;20002;-80
2023/12/14 15:57:39;;;;;;;;;;;;;;;;;;5093116;28;19999;-80
2023/12/14 16:00:04;;;;;;;;;;;;;;;;;;5091628;28;19916;-80
2023/12/14 16:02:29;;;;;;;;;;;;;;;;;;5093058;28;19954;-80
2023/12/14 16:04:54;;;;;;;;;;;;;;;;;;5092927;28;19908;-80
2023/12/14 16:07:20;;;;;;;;;;;;;;;;;;5093300;28;20147;-80
2023/12/14 16:09:45;;;;;;;;;;;;;;;;;;5091275;28;20317;-80
2023/12/14 16:12:10;;;;;;;;;;;;;;;;;;5084040;28;19908;-80
2023/12/14 16:14:35;;;;;;;;;;;;;;;;;;5091886;28;19915;-80
2023/12/14 16:17:00;;;;;;;;;;;;;;;;;;5092123;28;20330;-80
2023/12/14 16:19:25;;;;;;;;;;;;;;;;;;5092035;28;19912;-79
2023/12/14 16:21:50;;;;;;;;;;;;;;;;;;5091922;28;19908;-80
2023/12/14 16:24:16;;;;;;;;;;;;;;;;;;5091945;28;19912;-80
2023/12/14 16:26:41;;;;;;;;;;;;;;;;;;5091812;28;19912;-80
2023/12/14 16:29:07;;;;;;;;;;;;;;;;;;5091357;28;19908;-79
2023/12/14 16:31:32;;;;;;;;;;;;;;;;;;5091740;28;19953;-80